createdAt,value
2023-11-07T00:00:03.140Z,8.07
2023-11-07T00:01:09.172Z,7.18
2023-11-07T00:02:11.942Z,8.50
2023-11-07T00:03:14.704Z,6.88
2023-11-07T00:04:17.760Z,8.20
2023-11-07T00:05:21.655Z,8.25
2023-11-07T00:06:25.431Z,7.50
2023-11-07T00:07:31.240Z,8.05
2023-11-07T00:08:33.543Z,7.63
2023-11-07T00:09:45.347Z,7.28
2023-11-07T00:10:48.661Z,8.23
2023-11-07T00:11:51.439Z,8.25
2023-11-07T00:12:53.901Z,8.90
2023-11-07T00:13:56.807Z,8.65
2023-11-07T00:14:59.333Z,8.50
2023-11-07T00:16:01.752Z,8.35
2023-11-07T00:17:04.561Z,8.10
2023-11-07T00:18:07.797Z,9.43
2023-11-07T00:19:12.798Z,8.27
2023-11-07T00:20:15.966Z,8.73
2023-11-07T00:21:24.931Z,8.90
2023-11-07T00:22:30.097Z,9.48
2023-11-07T00:23:32.782Z,9.40
2023-11-07T00:24:35.453Z,8.65
2023-11-07T00:25:38.309Z,9.32
2023-11-07T00:26:40.965Z,8.90
2023-11-07T00:27:43.738Z,9.35
2023-11-07T00:28:46.283Z,8.32
2023-11-07T00:29:49.346Z,8.38
2023-11-07T00:30:57.793Z,8.77
2023-11-07T00:32:00.754Z,8.05
2023-11-07T00:33:03.519Z,8.38
2023-11-07T00:34:08.719Z,8.73
2023-11-07T00:35:11.506Z,9.25
2023-11-07T00:36:14.246Z,8.77
2023-11-07T00:37:19.439Z,9.15
2023-11-07T00:38:22.231Z,9.25
2023-11-07T00:39:34.647Z,9.38
2023-11-07T00:40:39.686Z,8.68
2023-11-07T00:41:42.030Z,9.65
2023-11-07T00:42:46.393Z,9.00
2023-11-07T00:43:49.070Z,9.38
2023-11-07T00:44:51.792Z,11.05
2023-11-07T00:45:54.513Z,10.13
2023-11-07T00:46:57.366Z,10.73
2023-11-07T00:48:00.652Z,10.02
2023-11-07T00:49:04.021Z,10.05
2023-11-07T00:50:12.268Z,10.10
2023-11-07T00:51:14.735Z,9.80
2023-11-07T00:52:17.107Z,11.50
2023-11-07T00:53:20.273Z,9.95
2023-11-07T00:54:22.955Z,11.48
2023-11-07T00:55:25.674Z,10.65
2023-11-07T00:56:28.224Z,9.40
2023-11-07T00:57:30.868Z,10.35
2023-11-07T00:58:33.588Z,10.02
2023-11-07T00:59:36.007Z,10.98
2023-11-07T01:00:38.869Z,10.15
2023-11-07T01:01:42.083Z,10.45
2023-11-07T01:02:46.094Z,8.65
2023-11-07T01:03:49.195Z,7.93
2023-11-07T01:04:52.079Z,9.07
2023-11-07T01:05:54.834Z,9.02
2023-11-07T01:06:57.861Z,7.90
2023-11-07T01:08:02.174Z,8.07
2023-11-07T01:09:05.629Z,8.18
2023-11-07T01:10:08.866Z,8.05
2023-11-07T01:11:11.458Z,8.23
2023-11-07T01:12:15.307Z,8.77
2023-11-07T01:13:18.122Z,8.57
2023-11-07T01:14:20.827Z,8.30
2023-11-07T01:15:23.676Z,8.90
2023-11-07T01:16:27.300Z,8.75
2023-11-07T01:17:30.334Z,8.50
2023-11-07T01:18:33.821Z,8.55
2023-11-07T01:19:36.690Z,9.65
2023-11-07T01:20:39.644Z,7.25
2023-11-07T01:21:41.953Z,8.52
2023-11-07T01:22:45.822Z,8.40
2023-11-07T01:23:51.015Z,7.68
2023-11-07T01:24:53.610Z,8.02
2023-11-07T01:25:56.076Z,8.85
2023-11-07T01:26:58.568Z,7.40
2023-11-07T01:28:01.326Z,8.25
2023-11-07T01:29:03.899Z,8.30
2023-11-07T01:30:07.191Z,8.60
2023-11-07T01:31:10.661Z,8.13
2023-11-07T01:32:13.304Z,7.97
2023-11-07T01:33:16.546Z,9.07
2023-11-07T01:34:19.337Z,8.15
2023-11-07T01:35:22.117Z,8.02
2023-11-07T01:36:24.948Z,7.43
2023-11-07T01:37:27.901Z,7.32
2023-11-07T01:38:30.544Z,7.90
2023-11-07T01:39:33.491Z,7.50
2023-11-07T01:40:36.273Z,8.23
2023-11-07T01:41:39.962Z,8.18
2023-11-07T01:42:46.841Z,8.02
2023-11-07T01:43:50.026Z,7.85
2023-11-07T01:44:53.387Z,7.75
2023-11-07T01:46:00.639Z,8.05
2023-11-07T01:47:04.108Z,7.97
2023-11-07T01:48:09.688Z,8.63
2023-11-07T01:49:13.474Z,8.30
2023-11-07T01:50:17.318Z,8.77
2023-11-07T01:51:20.066Z,8.45
2023-11-07T01:52:22.826Z,8.68
2023-11-07T01:53:25.609Z,9.15
2023-11-07T01:54:29.007Z,10.20
2023-11-07T01:55:34.572Z,8.82
2023-11-07T01:56:36.960Z,8.52
2023-11-07T01:57:45.890Z,8.57
2023-11-07T01:58:49.626Z,8.77
2023-11-07T01:59:54.319Z,9.18
2023-11-07T02:00:56.886Z,8.52
2023-11-07T02:02:01.685Z,7.45
2023-11-07T02:03:04.237Z,8.43
2023-11-07T02:04:07.122Z,9.90
2023-11-07T02:05:13.635Z,10.50
2023-11-07T02:06:16.274Z,10.02
2023-11-07T02:07:20.455Z,9.25
2023-11-07T02:08:24.325Z,9.20
2023-11-07T02:09:27.606Z,9.60
2023-11-07T02:10:30.210Z,9.30
2023-11-07T02:11:33.270Z,9.38
2023-11-07T02:12:36.990Z,10.40
2023-11-07T02:13:39.728Z,9.70
2023-11-07T02:14:42.712Z,10.00
2023-11-07T02:15:45.819Z,9.52
2023-11-07T02:16:48.456Z,9.25
2023-11-07T02:17:51.718Z,9.50
2023-11-07T02:18:54.503Z,9.40
2023-11-07T02:19:58.034Z,9.23
2023-11-07T02:21:00.512Z,9.68
2023-11-07T02:22:04.941Z,9.48
2023-11-07T02:24:12.164Z,8.30
2023-11-07T02:25:16.313Z,9.55
2023-11-07T02:26:18.719Z,8.95
2023-11-07T02:27:23.647Z,8.80
2023-11-07T02:28:26.459Z,8.98
2023-11-07T02:29:29.817Z,8.88
2023-11-07T02:30:33.480Z,8.00
2023-11-07T02:31:36.388Z,10.02
2023-11-07T02:32:40.440Z,9.13
2023-11-07T02:33:43.263Z,9.93
2023-11-07T02:34:45.731Z,10.25
2023-11-07T02:35:48.570Z,9.13
2023-11-07T02:36:51.750Z,8.43
2023-11-07T02:37:54.411Z,9.07
2023-11-07T02:38:56.917Z,10.18
2023-11-07T02:40:02.075Z,10.00
2023-11-07T02:41:06.175Z,9.73
2023-11-07T02:43:12.320Z,8.85
2023-11-07T02:44:16.962Z,9.82
2023-11-07T02:45:19.968Z,9.32
2023-11-07T02:46:22.584Z,10.25
2023-11-07T02:47:26.699Z,11.65
2023-11-07T02:48:30.347Z,9.45
2023-11-07T02:49:33.401Z,10.15
2023-11-07T02:50:36.234Z,10.45
2023-11-07T02:51:39.991Z,8.90
2023-11-07T02:52:42.697Z,8.30
2023-11-07T02:53:48.969Z,9.32
2023-11-07T02:54:52.537Z,9.15
2023-11-07T02:55:54.923Z,12.02
2023-11-07T02:56:57.386Z,11.85
2023-11-07T02:57:59.901Z,12.35
2023-11-07T02:59:02.816Z,11.38
2023-11-07T03:00:09.559Z,11.80
2023-11-07T03:01:11.953Z,10.48
2023-11-07T03:02:15.631Z,11.23
2023-11-07T03:03:18.189Z,12.15
2023-11-07T03:04:21.330Z,11.80
2023-11-07T03:05:23.960Z,12.73
2023-11-07T03:06:27.213Z,11.52
2023-11-07T03:07:29.923Z,12.13
2023-11-07T03:08:32.293Z,11.45
2023-11-07T03:09:36.600Z,10.80
2023-11-07T03:10:38.906Z,10.10
2023-11-07T03:11:41.729Z,11.10
2023-11-07T03:12:44.266Z,13.85
2023-11-07T03:13:47.019Z,11.18
2023-11-07T03:14:49.772Z,12.52
2023-11-07T03:15:52.560Z,12.63
2023-11-07T03:16:56.278Z,13.32
2023-11-07T03:17:59.161Z,12.32
2023-11-07T03:19:02.877Z,12.57
2023-11-07T03:21:12.716Z,12.00
2023-11-07T03:22:17.860Z,12.40
2023-11-07T03:23:20.608Z,11.55
2023-11-07T03:24:23.016Z,12.15
2023-11-07T03:25:29.202Z,11.63
2023-11-07T03:26:31.849Z,11.50
2023-11-07T03:27:34.762Z,12.57
2023-11-07T03:28:37.535Z,12.70
2023-11-07T03:29:41.298Z,11.02
2023-11-07T03:30:44.106Z,12.05
2023-11-07T03:31:46.879Z,10.98
2023-11-07T03:32:49.687Z,12.23
2023-11-07T03:33:52.329Z,11.57
2023-11-07T03:34:54.793Z,12.00
2023-11-07T03:35:58.549Z,11.82
2023-11-07T03:37:01.612Z,11.60
2023-11-07T03:38:04.296Z,12.30
2023-11-07T03:39:07.865Z,11.55
2023-11-07T03:40:10.739Z,11.18
2023-11-07T03:41:13.576Z,11.52
2023-11-07T03:42:16.533Z,11.98
2023-11-07T03:43:19.289Z,12.13
2023-11-07T03:44:21.941Z,14.20
2023-11-07T03:45:24.694Z,12.75
2023-11-07T03:46:27.365Z,14.52
2023-11-07T03:47:31.054Z,13.40
2023-11-07T03:48:34.023Z,13.15
2023-11-07T03:49:37.050Z,12.15
2023-11-07T03:50:39.533Z,13.20
2023-11-07T03:51:42.213Z,12.25
2023-11-07T03:52:44.770Z,12.50
2023-11-07T03:53:47.305Z,11.98
2023-11-07T03:54:49.906Z,11.32
2023-11-07T03:55:53.148Z,12.05
2023-11-07T03:56:55.741Z,11.75
2023-11-07T03:57:58.448Z,12.05
2023-11-07T04:00:31.815Z,11.45
2023-11-07T04:01:38.236Z,10.15
2023-11-07T04:02:41.277Z,11.88
2023-11-07T04:03:44.257Z,11.40
2023-11-07T04:04:46.675Z,11.80
2023-11-07T04:05:49.311Z,12.50
2023-11-07T04:06:51.992Z,13.38
2023-11-07T04:07:54.349Z,12.40
2023-11-07T04:08:57.090Z,13.63
2023-11-07T04:09:59.542Z,12.32
2023-11-07T04:11:02.903Z,13.40
2023-11-07T04:12:06.163Z,13.60
2023-11-07T04:13:08.896Z,13.93
2023-11-07T04:14:12.061Z,15.35
2023-11-07T04:15:14.599Z,14.45
2023-11-07T04:16:17.266Z,15.38
2023-11-07T04:17:20.517Z,15.93
2023-11-07T04:18:27.088Z,14.68
2023-11-07T04:19:29.785Z,14.30
2023-11-07T04:20:35.281Z,13.38
2023-11-07T04:21:38.941Z,12.68
2023-11-07T04:22:41.851Z,12.55
2023-11-07T04:23:44.813Z,12.30
2023-11-07T04:24:48.538Z,19.67
2023-11-07T04:25:51.547Z,16.30
2023-11-07T04:26:55.367Z,17.20
2023-11-07T04:27:58.293Z,17.45
2023-11-07T04:29:00.801Z,17.83
2023-11-07T04:30:06.980Z,18.27
2023-11-07T04:31:09.811Z,18.55
2023-11-07T04:32:13.069Z,15.25
2023-11-07T04:33:15.915Z,14.68
2023-11-07T04:34:18.718Z,11.90
2023-11-07T04:35:22.942Z,12.98
2023-11-07T04:36:25.544Z,12.65
2023-11-07T04:37:28.326Z,10.40
2023-11-07T04:38:31.756Z,11.38
2023-11-07T04:39:41.684Z,11.65
2023-11-07T04:40:44.227Z,9.32
2023-11-07T04:41:46.982Z,9.07
2023-11-07T04:42:51.767Z,8.68
2023-11-07T04:43:54.316Z,9.35
2023-11-07T04:44:57.381Z,10.13
2023-11-07T04:46:01.240Z,8.55
2023-11-07T04:47:04.012Z,8.63
2023-11-07T04:48:07.718Z,8.60
2023-11-07T04:49:11.085Z,9.60
2023-11-07T04:50:13.706Z,8.85
2023-11-07T04:51:18.682Z,9.38
2023-11-07T04:52:21.480Z,8.48
2023-11-07T04:53:24.040Z,8.80
2023-11-07T04:54:26.727Z,7.93
2023-11-07T04:55:33.103Z,9.80
2023-11-07T04:57:38.413Z,8.95
2023-11-07T04:58:56.558Z,9.05
2023-11-07T05:00:01.844Z,9.48
2023-11-07T05:01:13.218Z,9.30
2023-11-07T05:02:15.607Z,9.55
2023-11-07T05:03:22.734Z,10.35
2023-11-07T05:04:29.139Z,11.63
2023-11-07T05:05:32.014Z,10.30
2023-11-07T05:06:34.668Z,10.43
2023-11-07T05:07:40.398Z,9.77
2023-11-07T05:08:43.784Z,11.60
2023-11-07T05:09:46.720Z,10.60
2023-11-07T05:10:49.374Z,11.65
2023-11-07T05:11:52.212Z,11.65
2023-11-07T05:12:54.623Z,12.40
2023-11-07T05:13:57.049Z,11.23
2023-11-07T05:14:59.802Z,12.38
2023-11-07T05:16:02.203Z,12.52
2023-11-07T05:17:06.213Z,11.88
2023-11-07T05:18:09.006Z,11.35
2023-11-07T05:19:13.271Z,13.18
2023-11-07T05:20:16.826Z,12.27
2023-11-07T05:21:19.365Z,12.80
2023-11-07T05:22:22.135Z,12.75
2023-11-07T05:23:24.952Z,11.25
2023-11-07T05:24:27.659Z,12.23
2023-11-07T05:25:30.422Z,11.90
2023-11-07T05:26:33.176Z,12.50
2023-11-07T05:27:36.321Z,13.10
2023-11-07T05:28:39.070Z,11.75
2023-11-07T05:29:41.483Z,13.88
2023-11-07T05:30:43.966Z,13.18
2023-11-07T05:31:48.162Z,12.85
2023-11-07T05:33:53.072Z,12.05
2023-11-07T05:34:56.572Z,13.07
2023-11-07T05:35:59.365Z,12.80
2023-11-07T05:37:02.450Z,15.52
2023-11-07T05:38:06.425Z,12.95
2023-11-07T05:39:09.109Z,15.18
2023-11-07T05:40:14.891Z,15.27
2023-11-07T05:41:20.104Z,14.15
2023-11-07T05:43:26.460Z,14.90
2023-11-07T05:44:29.147Z,15.40
2023-11-07T05:45:32.520Z,16.42
2023-11-07T05:46:35.808Z,17.58
2023-11-07T05:47:38.880Z,16.58
2023-11-07T05:48:41.481Z,16.13
2023-11-07T05:49:44.175Z,16.70
2023-11-07T05:50:46.964Z,18.40
2023-11-07T05:51:49.624Z,19.23
2023-11-07T05:52:53.465Z,21.85
2023-11-07T05:53:56.080Z,22.08
2023-11-07T05:54:59.039Z,19.58
2023-11-07T05:56:02.573Z,17.70
2023-11-07T05:57:05.214Z,17.58
2023-11-07T05:58:08.602Z,18.55
2023-11-07T05:59:11.705Z,19.85
2023-11-07T06:00:14.763Z,18.65
2023-11-07T06:01:17.557Z,18.55
2023-11-07T06:02:19.866Z,19.35
2023-11-07T06:03:23.002Z,18.63
2023-11-07T06:04:35.839Z,17.42
2023-11-07T06:05:38.317Z,19.67
2023-11-07T06:06:41.573Z,18.67
2023-11-07T06:07:44.349Z,17.02
2023-11-07T06:08:47.032Z,19.40
2023-11-07T06:09:49.404Z,19.33
2023-11-07T06:10:51.995Z,17.27
2023-11-07T06:11:57.757Z,18.20
2023-11-07T06:13:05.755Z,17.17
2023-11-07T06:14:09.104Z,17.00
2023-11-07T06:15:14.076Z,17.17
2023-11-07T06:16:16.894Z,17.35
2023-11-07T06:17:19.505Z,17.33
2023-11-07T06:18:23.610Z,17.67
2023-11-07T06:19:26.460Z,17.83
2023-11-07T06:20:29.443Z,19.65
2023-11-07T06:21:32.233Z,19.35
2023-11-07T06:22:34.913Z,19.73
2023-11-07T06:23:37.939Z,18.65
2023-11-07T06:24:40.377Z,19.20
2023-11-07T06:25:43.659Z,18.52
2023-11-07T06:26:54.408Z,19.63
2023-11-07T06:27:57.008Z,18.65
2023-11-07T06:28:59.650Z,18.33
2023-11-07T06:30:05.403Z,17.30
2023-11-07T06:31:08.768Z,18.80
2023-11-07T06:32:11.406Z,16.40
2023-11-07T06:33:16.049Z,17.80
2023-11-07T06:34:18.841Z,16.23
2023-11-07T06:35:25.497Z,16.02
2023-11-07T06:36:28.155Z,17.10
2023-11-07T06:37:37.364Z,16.65
2023-11-07T06:38:40.114Z,16.27
2023-11-07T06:39:43.766Z,16.38
2023-11-07T06:40:46.304Z,16.65
2023-11-07T06:41:49.100Z,17.30
2023-11-07T06:42:54.112Z,18.25
2023-11-07T06:43:57.794Z,16.55
2023-11-07T06:45:00.626Z,17.67
2023-11-07T06:46:03.638Z,19.15
2023-11-07T06:47:06.774Z,18.95
2023-11-07T06:48:09.762Z,19.90
2023-11-07T06:49:12.614Z,19.95
2023-11-07T06:50:16.069Z,17.63
2023-11-07T06:51:21.965Z,18.02
2023-11-07T06:52:25.052Z,20.15
2023-11-07T06:53:28.175Z,18.95
2023-11-07T06:54:30.871Z,19.75
2023-11-07T06:55:34.628Z,17.40
2023-11-07T06:56:37.155Z,16.00
2023-11-07T06:57:40.189Z,14.60
2023-11-07T06:58:43.157Z,14.48
2023-11-07T06:59:45.669Z,14.13
2023-11-07T07:00:48.349Z,14.07
2023-11-07T07:01:52.984Z,12.60
2023-11-07T07:02:57.785Z,13.75
2023-11-07T07:04:01.796Z,12.77
2023-11-07T07:05:12.486Z,12.98
2023-11-07T07:06:16.134Z,11.80
2023-11-07T07:07:20.393Z,11.73
2023-11-07T07:08:26.307Z,10.75
2023-11-07T07:09:29.322Z,12.02
2023-11-07T07:10:33.505Z,11.57
2023-11-07T07:11:36.125Z,11.88
2023-11-07T07:12:39.729Z,13.43
2023-11-07T07:13:49.906Z,14.23
2023-11-07T07:14:53.690Z,14.70
2023-11-07T07:15:57.636Z,16.27
2023-11-07T07:17:08.751Z,20.20
2023-11-07T07:18:11.974Z,16.40
2023-11-07T07:19:20.637Z,14.60
2023-11-07T07:20:24.266Z,14.65
2023-11-07T07:21:27.212Z,9.23
2023-11-07T07:22:30.024Z,8.88
2023-11-07T07:23:38.363Z,9.05
2023-11-07T07:24:42.225Z,9.00
2023-11-07T07:25:45.343Z,8.00
2023-11-07T07:26:48.248Z,10.02
2023-11-07T07:27:51.757Z,8.15
2023-11-07T07:28:55.353Z,7.28
2023-11-07T07:29:58.645Z,8.00
2023-11-07T07:31:01.477Z,8.45
2023-11-07T07:32:04.684Z,7.93
2023-11-07T07:33:10.676Z,8.55
2023-11-07T07:34:13.816Z,8.05
2023-11-07T07:35:16.598Z,8.32
2023-11-07T07:36:20.005Z,8.75
2023-11-07T07:37:25.522Z,11.00
2023-11-07T07:38:28.284Z,10.55
2023-11-07T07:39:31.963Z,10.20
2023-11-07T07:40:35.522Z,10.50
2023-11-07T07:41:38.513Z,12.35
2023-11-07T07:42:45.385Z,14.93
2023-11-07T07:43:48.892Z,13.63
2023-11-07T07:44:52.372Z,13.00
2023-11-07T07:45:56.749Z,11.82
2023-11-07T07:48:05.236Z,11.88
2023-11-07T07:49:12.513Z,12.40
2023-11-07T07:50:16.376Z,12.90
2023-11-07T07:51:19.347Z,15.88
2023-11-07T07:52:24.133Z,14.80
2023-11-07T07:53:27.025Z,13.88
2023-11-07T07:54:52.512Z,12.88
2023-11-07T07:55:53.673Z,10.38
2023-11-07T07:56:59.114Z,11.35
2023-11-07T07:58:01.803Z,10.98
2023-11-07T07:59:06.877Z,9.27
2023-11-07T08:00:16.564Z,8.15
2023-11-07T08:01:21.734Z,7.60
2023-11-07T08:02:24.673Z,5.38
2023-11-07T08:03:27.253Z,6.07
2023-11-07T08:04:33.078Z,6.00
2023-11-07T08:05:41.381Z,5.28
2023-11-07T08:06:44.761Z,5.03
2023-11-07T08:07:48.573Z,5.35
2023-11-07T08:08:54.217Z,6.22
2023-11-07T08:09:57.688Z,5.60
2023-11-07T08:11:00.427Z,5.32
2023-11-07T08:12:09.833Z,5.88
2023-11-07T08:13:12.742Z,5.70
2023-11-07T08:14:16.000Z,5.80
2023-11-07T08:15:18.655Z,5.05
2023-11-07T08:16:21.231Z,6.35
2023-11-07T08:17:25.141Z,5.25
2023-11-07T08:18:27.586Z,5.88
2023-11-07T08:19:30.286Z,5.63
2023-11-07T08:20:34.670Z,5.70
2023-11-07T08:21:38.588Z,5.68
2023-11-07T08:22:41.343Z,5.90
2023-11-07T08:23:43.706Z,6.28
2023-11-07T08:24:47.941Z,6.53
2023-11-07T08:25:51.665Z,6.85
2023-11-07T08:26:54.319Z,5.97
2023-11-07T08:27:57.105Z,5.88
2023-11-07T08:29:01.996Z,7.00
2023-11-07T08:30:06.106Z,5.90
2023-11-07T08:31:08.599Z,5.88
2023-11-07T08:32:13.696Z,5.82
2023-11-07T08:33:16.880Z,5.43
2023-11-07T08:34:24.010Z,5.70
2023-11-07T08:35:26.950Z,4.97
2023-11-07T08:36:31.465Z,5.63
2023-11-07T08:37:35.430Z,6.40
2023-11-07T08:38:40.849Z,5.22
2023-11-07T08:39:44.587Z,5.20
2023-11-07T08:40:49.293Z,5.20
2023-11-07T08:41:52.276Z,5.38
2023-11-07T08:42:54.900Z,4.40
2023-11-07T08:43:57.595Z,5.45
2023-11-07T08:45:01.209Z,5.03
2023-11-07T08:46:05.257Z,4.95
2023-11-07T08:48:11.747Z,4.70
2023-11-07T08:50:19.634Z,4.95
2023-11-07T08:51:22.352Z,5.28
2023-11-07T08:52:25.978Z,4.93
2023-11-07T08:53:29.980Z,4.80
2023-11-07T08:54:32.453Z,4.85
2023-11-07T08:55:36.107Z,4.55
2023-11-07T08:57:54.919Z,3.90
2023-11-07T08:59:06.897Z,4.22
2023-11-07T09:00:44.705Z,3.90
2023-11-07T09:01:55.003Z,4.13
2023-11-07T09:02:59.567Z,5.28
2023-11-07T09:04:11.034Z,4.65
2023-11-07T09:05:14.297Z,5.25
2023-11-07T09:06:16.863Z,4.55
2023-11-07T09:07:27.803Z,4.85
2023-11-07T09:08:35.448Z,4.30
2023-11-07T09:09:46.790Z,4.70
2023-11-07T09:10:49.632Z,4.90
2023-11-07T09:11:53.753Z,5.05
2023-11-07T09:12:58.959Z,5.07
2023-11-07T09:14:01.895Z,4.90
2023-11-07T09:15:07.239Z,4.43
2023-11-07T09:16:10.487Z,4.47
2023-11-07T09:17:13.777Z,4.40
2023-11-07T09:18:19.313Z,5.03
2023-11-07T09:19:35.508Z,4.25
2023-11-07T09:20:44.175Z,4.40
2023-11-07T09:21:46.751Z,6.00
2023-11-07T09:22:49.635Z,5.18
2023-11-07T09:23:54.793Z,4.55
2023-11-07T09:24:57.977Z,4.53
2023-11-07T09:26:01.018Z,5.35
2023-11-07T09:27:09.480Z,4.57
2023-11-07T09:28:12.172Z,5.07
2023-11-07T09:29:14.999Z,5.53
2023-11-07T09:30:18.797Z,5.18
2023-11-07T09:31:26.404Z,5.45
2023-11-07T09:32:31.038Z,5.30
2023-11-07T09:33:34.082Z,4.95
2023-11-07T09:34:41.455Z,5.78
2023-11-07T09:35:44.258Z,4.60
2023-11-07T09:36:47.172Z,4.60
2023-11-07T09:37:51.394Z,4.40
2023-11-07T09:38:54.415Z,4.57
2023-11-07T09:39:57.571Z,4.60
2023-11-07T09:41:00.435Z,4.18
2023-11-07T09:42:09.723Z,5.18
2023-11-07T09:43:13.809Z,4.50
2023-11-07T09:45:23.311Z,3.70
2023-11-07T09:46:27.677Z,4.45
2023-11-07T09:47:34.176Z,3.85
2023-11-07T09:48:36.952Z,3.08
2023-11-07T09:49:39.953Z,5.95
2023-11-07T09:50:45.113Z,6.32
2023-11-07T09:51:51.900Z,3.92
2023-11-07T09:53:06.324Z,4.10
2023-11-07T09:54:11.818Z,4.20
2023-11-07T09:55:18.244Z,5.72
2023-11-07T09:56:21.014Z,4.47
2023-11-07T09:57:26.229Z,5.05
2023-11-07T09:58:30.546Z,5.68
2023-11-07T09:59:39.096Z,4.82
2023-11-07T10:00:45.648Z,4.13
2023-11-07T10:01:50.720Z,3.40
2023-11-07T10:02:54.173Z,3.90
2023-11-07T10:04:00.278Z,4.13
2023-11-07T10:05:04.458Z,4.43
2023-11-07T10:06:08.072Z,4.35
2023-11-07T10:07:11.002Z,4.43
2023-11-07T10:08:17.860Z,4.35
2023-11-07T10:09:22.982Z,4.72
2023-11-07T10:10:25.974Z,5.05
2023-11-07T10:11:28.683Z,4.00
2023-11-07T10:12:33.354Z,4.90
2023-11-07T10:13:36.131Z,3.72
2023-11-07T10:14:38.527Z,4.30
2023-11-07T10:15:42.082Z,4.53
2023-11-07T10:16:44.834Z,4.07
2023-11-07T10:18:08.203Z,4.40
2023-11-07T10:19:17.752Z,3.70
2023-11-07T10:20:20.808Z,3.85
2023-11-07T10:21:41.657Z,3.90
2023-11-07T10:22:45.642Z,3.53
2023-11-07T10:23:56.135Z,3.58
2023-11-07T10:24:58.770Z,3.65
2023-11-07T10:26:13.344Z,3.92
2023-11-07T10:27:16.616Z,3.50
2023-11-07T10:28:21.545Z,3.60
2023-11-07T10:29:27.487Z,3.33
2023-11-07T10:30:47.104Z,4.13
2023-11-07T10:32:13.932Z,3.80
2023-11-07T10:33:30.484Z,4.00
2023-11-07T10:34:33.988Z,3.70
2023-11-07T10:36:08.617Z,3.90
2023-11-07T10:37:12.655Z,3.58
2023-11-07T10:39:23.190Z,3.35
2023-11-07T10:40:28.432Z,3.33
2023-11-07T10:41:32.052Z,3.92
2023-11-07T10:42:35.976Z,3.60
2023-11-07T10:43:39.963Z,4.55
2023-11-07T10:44:44.354Z,4.68
2023-11-07T10:45:46.870Z,3.65
2023-11-07T10:46:50.568Z,4.10
2023-11-07T10:47:53.737Z,3.90
2023-11-07T10:48:56.891Z,4.32
2023-11-07T10:50:00.884Z,4.72
2023-11-07T10:51:07.328Z,3.90
2023-11-07T10:52:11.413Z,3.85
2023-11-07T10:53:15.219Z,4.07
2023-11-07T10:54:21.643Z,3.20
2023-11-07T10:55:24.711Z,3.38
2023-11-07T10:56:30.516Z,3.30
2023-11-07T10:57:39.305Z,3.53
2023-11-07T10:58:57.587Z,3.00
2023-11-07T11:00:19.405Z,3.60
2023-11-07T11:01:22.550Z,3.45
2023-11-07T11:02:27.755Z,3.85
2023-11-07T11:03:31.856Z,3.63
2023-11-07T11:04:39.543Z,4.13
2023-11-07T11:05:45.321Z,3.30
2023-11-07T11:06:53.936Z,3.50
2023-11-07T11:08:00.331Z,2.80
2023-11-07T11:09:12.566Z,2.58
2023-11-07T11:10:16.998Z,3.25
2023-11-07T11:12:24.250Z,3.33
2023-11-07T11:13:30.695Z,3.95
2023-11-07T11:14:33.431Z,3.47
2023-11-07T11:15:36.441Z,3.05
2023-11-07T11:16:40.901Z,2.92
2023-11-07T11:17:53.774Z,3.28
2023-11-07T11:19:01.508Z,4.00
2023-11-07T11:20:14.752Z,3.58
2023-11-07T11:21:26.824Z,3.75
2023-11-07T11:22:52.463Z,3.78
2023-11-07T11:24:17.551Z,3.15
2023-11-07T11:25:45.663Z,3.13
2023-11-07T11:26:57.467Z,3.13
2023-11-07T11:28:06.704Z,3.80
2023-11-07T11:29:29.616Z,2.97
2023-11-07T11:30:39.136Z,3.40
2023-11-07T11:31:41.706Z,3.28
2023-11-07T11:32:45.807Z,2.75
2023-11-07T11:33:48.786Z,3.10
2023-11-07T11:34:51.592Z,3.05
2023-11-07T11:35:55.417Z,3.00
2023-11-07T11:36:59.123Z,3.20
2023-11-07T11:38:22.694Z,3.03
2023-11-07T11:39:31.916Z,3.10
2023-11-07T11:41:07.884Z,3.50
2023-11-07T11:42:11.499Z,3.22
2023-11-07T11:43:17.703Z,3.05
2023-11-07T11:44:22.360Z,3.13
2023-11-07T11:45:40.868Z,2.90
2023-11-07T11:46:59.820Z,4.18
2023-11-07T11:48:02.807Z,4.05
2023-11-07T11:49:09.005Z,3.70
2023-11-07T11:50:17.348Z,4.35
2023-11-07T11:51:43.683Z,3.60
2023-11-07T11:52:49.942Z,3.58
2023-11-07T11:53:55.254Z,3.20
2023-11-07T11:54:58.066Z,3.60
2023-11-07T11:56:00.583Z,4.05
2023-11-07T11:57:05.947Z,3.88
2023-11-07T11:58:21.629Z,4.68
2023-11-07T11:59:55.395Z,4.15
2023-11-07T12:00:59.694Z,3.25
2023-11-07T12:02:06.109Z,3.30
2023-11-07T12:03:17.844Z,3.40
2023-11-07T12:04:49.933Z,4.50
2023-11-07T12:06:07.762Z,4.70
2023-11-07T12:07:11.637Z,3.67
2023-11-07T12:08:37.326Z,3.55
2023-11-07T12:09:49.116Z,3.20
2023-11-07T12:10:57.720Z,3.72
2023-11-07T12:12:00.754Z,3.30
2023-11-07T12:13:03.209Z,2.88
2023-11-07T12:14:08.329Z,3.00
2023-11-07T12:15:14.072Z,3.42
2023-11-07T12:16:21.208Z,3.80
2023-11-07T12:17:25.045Z,3.55
2023-11-07T12:18:40.198Z,3.70
2023-11-07T12:19:45.663Z,3.42
2023-11-07T12:20:51.601Z,3.40
2023-11-07T12:21:55.245Z,3.55
2023-11-07T12:22:58.478Z,3.45
2023-11-07T12:24:04.241Z,4.90
2023-11-07T12:25:13.239Z,4.15
2023-11-07T12:26:16.208Z,3.85
2023-11-07T12:27:20.879Z,4.00
2023-11-07T12:28:23.793Z,4.63
2023-11-07T12:29:34.164Z,4.25
2023-11-07T12:31:40.942Z,5.47
2023-11-07T12:32:45.282Z,4.53
2023-11-07T12:33:50.093Z,4.75
2023-11-07T12:34:53.970Z,4.60
2023-11-07T12:37:06.701Z,4.60
2023-11-07T12:40:17.315Z,3.63
2023-11-07T12:41:20.268Z,2.97
2023-11-07T12:42:23.596Z,3.20
2023-11-07T12:43:44.064Z,3.15
2023-11-07T12:44:51.336Z,2.80
2023-11-07T12:45:55.936Z,3.35
2023-11-07T12:47:00.683Z,2.55
2023-11-07T12:48:08.094Z,2.65
2023-11-07T12:49:20.365Z,2.70
2023-11-07T12:50:25.202Z,3.13
2023-11-07T12:51:28.870Z,3.00
2023-11-07T12:52:31.841Z,2.80
2023-11-07T12:53:35.270Z,3.03
2023-11-07T12:54:37.858Z,2.65
2023-11-07T12:57:02.647Z,2.53
2023-11-07T12:58:06.622Z,2.83
2023-11-07T12:59:10.751Z,2.92
2023-11-07T13:00:15.678Z,2.72
2023-11-07T13:01:25.526Z,2.75
2023-11-07T13:02:28.152Z,3.38
2023-11-07T13:03:35.648Z,2.97
2023-11-07T13:04:42.461Z,3.00
2023-11-07T13:05:46.632Z,2.75
2023-11-07T13:06:55.920Z,3.05
2023-11-07T13:07:58.519Z,3.08
2023-11-07T13:09:13.726Z,3.13
2023-11-07T13:10:17.321Z,2.13
2023-11-07T13:11:21.950Z,2.33
2023-11-07T13:12:24.738Z,2.30
2023-11-07T13:13:28.150Z,2.67
2023-11-07T13:14:31.509Z,2.10
2023-11-07T13:15:34.413Z,2.85
2023-11-07T13:16:37.206Z,2.30
2023-11-07T13:17:40.946Z,2.20
2023-11-07T13:18:51.219Z,2.65
2023-11-07T13:19:53.892Z,2.92
2023-11-07T13:20:56.915Z,2.60
2023-11-07T13:21:59.817Z,2.10
2023-11-07T13:23:02.598Z,2.25
2023-11-07T13:24:06.019Z,2.65
2023-11-07T13:25:10.906Z,2.60
2023-11-07T13:26:19.789Z,2.50
2023-11-07T13:27:28.192Z,2.25
2023-11-07T13:28:31.021Z,3.33
2023-11-07T13:29:36.446Z,2.40
2023-11-07T13:30:39.261Z,2.38
2023-11-07T13:31:51.471Z,2.47
2023-11-07T13:32:56.673Z,2.70
2023-11-07T13:34:03.222Z,3.00
2023-11-07T13:35:09.043Z,2.67
2023-11-07T13:36:15.072Z,2.50
2023-11-07T13:37:18.516Z,2.60
2023-11-07T13:38:21.097Z,3.17
2023-11-07T13:39:26.614Z,3.03
2023-11-07T13:40:29.280Z,2.88
2023-11-07T13:41:33.655Z,2.50
2023-11-07T13:42:39.165Z,2.53
2023-11-07T13:43:42.516Z,3.10
2023-11-07T13:44:45.381Z,3.63
2023-11-07T13:45:48.181Z,4.60
2023-11-07T13:46:50.839Z,3.88
2023-11-07T13:47:53.648Z,3.67
2023-11-07T13:48:57.064Z,3.15
2023-11-07T13:50:00.155Z,3.40
2023-11-07T13:51:03.407Z,3.70
2023-11-07T13:52:10.776Z,4.05
2023-11-07T13:53:13.893Z,3.25
2023-11-07T13:54:20.378Z,3.33
2023-11-07T13:55:22.898Z,3.42
2023-11-07T13:56:26.769Z,3.83
2023-11-07T13:57:32.228Z,3.55
2023-11-07T13:58:34.808Z,3.30
2023-11-07T13:59:37.909Z,3.70
2023-11-07T14:00:40.531Z,3.25
2023-11-07T14:01:44.368Z,3.63
2023-11-07T14:02:48.008Z,3.30
2023-11-07T14:03:50.585Z,2.85
2023-11-07T14:04:53.321Z,3.67
2023-11-07T14:05:57.881Z,3.13
2023-11-07T14:07:01.116Z,3.20
2023-11-07T14:08:04.193Z,3.20
2023-11-07T14:09:07.055Z,4.03
2023-11-07T14:10:13.027Z,2.80
2023-11-07T14:11:18.126Z,3.03
2023-11-07T14:12:23.496Z,3.42
2023-11-07T14:14:29.845Z,4.15
2023-11-07T14:15:36.327Z,3.58
2023-11-07T14:16:39.498Z,3.42
2023-11-07T14:17:45.666Z,3.65
2023-11-07T14:18:51.081Z,2.90
2023-11-07T14:19:56.970Z,3.10
2023-11-07T14:21:03.969Z,3.78
2023-11-07T14:22:08.243Z,3.50
2023-11-07T14:23:12.254Z,2.78
2023-11-07T14:24:15.134Z,3.05
2023-11-07T14:25:18.650Z,3.72
2023-11-07T14:26:21.843Z,4.28
2023-11-07T14:27:27.772Z,3.60
2023-11-07T14:28:30.923Z,3.22
2023-11-07T14:29:47.580Z,3.45
2023-11-07T14:31:00.499Z,4.82
2023-11-07T14:32:03.818Z,4.35
2023-11-07T14:33:09.861Z,3.63
2023-11-07T14:34:12.708Z,4.40
2023-11-07T14:35:17.477Z,4.82